Terminal Aerodrome Forecast
Issued by NWS

Home | Current Version | Previous Version | Graphics & Text | Print | Product List | Glossary On
Versions: 1 2 3 4 5 6 7 8 9 10 11 12 13 14 15 16 17 18
684
FTUS43 KICT 221131
TAFSLN
TAF
KSLN 221131Z 2212/2312 17009KT P6SM FEW250
     FM221900 18016G23KT P6SM SCT250
     FM230100 15010KT P6SM SCT250=

USA.gov is the U.S. government's official web portal to all federal, state and local government web resources and services.